createdAt,value
2017-08-15T00:00:05.930Z,51.1
2017-08-15T00:02:05.657Z,51.1
2017-08-15T00:04:05.541Z,51.1
2017-08-15T00:06:05.469Z,51.2
2017-08-15T00:08:07.901Z,51
2017-08-15T00:10:08.177Z,51
2017-08-15T00:12:06.062Z,51
2017-08-15T00:14:05.790Z,51
2017-08-15T00:16:05.485Z,51
2017-08-15T00:18:05.443Z,51
2017-08-15T00:20:07.673Z,50.9
2017-08-15T00:22:07.905Z,51
2017-08-15T00:24:08.473Z,50.9
2017-08-15T00:26:05.259Z,51
2017-08-15T00:28:06.043Z,50.8
2017-08-15T00:30:05.855Z,50.6
2017-08-15T00:32:05.649Z,50.7
2017-08-15T00:34:05.356Z,50.6
2017-08-15T00:36:05.193Z,50.5
2017-08-15T00:38:05.410Z,50.4
2017-08-15T00:40:05.154Z,50.4
2017-08-15T00:42:05.360Z,50.4
2017-08-15T00:44:05.653Z,50.3
2017-08-15T00:46:05.395Z,50.3
2017-08-15T00:48:05.280Z,50.3
2017-08-15T00:50:08.533Z,50
2017-08-15T00:52:05.281Z,50.2
2017-08-15T00:54:08.658Z,50.1
2017-08-15T00:56:05.351Z,50
2017-08-15T00:58:05.037Z,49.9
2017-08-15T01:00:05.867Z,49.9
2017-08-15T01:02:08.091Z,49.8
2017-08-15T01:04:05.760Z,49.9
2017-08-15T01:06:06.029Z,49.8
2017-08-15T01:08:05.793Z,49.9
2017-08-15T01:10:05.520Z,50
2017-08-15T01:12:05.321Z,49.9
2017-08-15T01:14:05.009Z,50
2017-08-15T01:16:05.746Z,49.7
2017-08-15T01:18:08.513Z,49.6
2017-08-15T01:20:05.711Z,49.6
2017-08-15T01:22:05.416Z,49.6
2017-08-15T01:24:05.386Z,49.6
2017-08-15T01:26:05.091Z,49.6
2017-08-15T01:28:05.978Z,49.6
2017-08-15T01:30:05.829Z,49.6
2017-08-15T01:32:08.227Z,49.6
2017-08-15T01:34:05.913Z,49.6
2017-08-15T01:36:05.739Z,49.6
2017-08-15T01:38:08.483Z,49.3
2017-08-15T01:40:05.250Z,49.4
2017-08-15T01:42:06.125Z,49.4
2017-08-15T01:44:05.538Z,49.4
2017-08-15T01:46:05.809Z,49.4
2017-08-15T01:48:05.554Z,49.3
2017-08-15T01:50:05.308Z,49.3
2017-08-15T01:52:13.125Z,49.3
2017-08-15T01:54:06.093Z,49.2
2017-08-15T01:56:10.851Z,49.1
2017-08-15T01:58:05.140Z,49.1
2017-08-15T02:00:05.975Z,49.1
2017-08-15T02:02:08.373Z,49.1
2017-08-15T02:04:05.464Z,49.1
2017-08-15T02:06:05.328Z,48.9
2017-08-15T02:08:05.564Z,48.9
2017-08-15T02:10:05.824Z,49
2017-08-15T02:12:08.210Z,48.8
2017-08-15T02:14:05.940Z,48.8
2017-08-15T02:16:08.158Z,48.9
2017-08-15T02:18:07.577Z,48.8
2017-08-15T02:20:05.304Z,48.8
2017-08-15T02:22:10.178Z,48.8
2017-08-15T02:24:10.736Z,48.8
2017-08-15T02:26:05.524Z,48.6
2017-08-15T02:28:07.784Z,48.7
2017-08-15T02:30:05.697Z,48.7
2017-08-15T02:32:05.438Z,48.9
2017-08-15T02:34:05.772Z,48.9
2017-08-15T02:36:05.703Z,49
2017-08-15T02:38:05.391Z,48.9
2017-08-15T02:40:05.172Z,48.7
2017-08-15T02:42:08.602Z,48.6
2017-08-15T02:44:07.980Z,48.6
2017-08-15T02:46:13.301Z,48.5
2017-08-15T02:48:05.171Z,48.5
2017-08-15T02:50:05.428Z,48.4
2017-08-15T02:52:05.540Z,48.4
2017-08-15T02:54:05.454Z,48.4
2017-08-15T02:56:05.176Z,48.1
2017-08-15T02:58:08.422Z,48.1
2017-08-15T03:00:05.476Z,48.1
2017-08-15T03:02:05.205Z,48.1
2017-08-15T03:04:05.963Z,48.2
2017-08-15T03:06:05.169Z,48.2
2017-08-15T03:08:08.039Z,48.2
2017-08-15T03:10:05.826Z,48.2
2017-08-15T03:12:05.077Z,48.3
2017-08-15T03:14:05.287Z,48.3
2017-08-15T03:16:05.048Z,48.2
2017-08-15T03:18:06.101Z,48.1
2017-08-15T03:20:08.369Z,47.9
2017-08-15T03:22:07.703Z,47.9
2017-08-15T03:24:05.620Z,47.9
2017-08-15T03:26:05.339Z,47.8
2017-08-15T03:28:07.633Z,47.6
2017-08-15T03:30:11.252Z,47.6
2017-08-15T03:32:05.998Z,47.7
2017-08-15T03:34:05.729Z,47.5
2017-08-15T03:36:05.452Z,47.6
2017-08-15T03:38:10.269Z,47.4
2017-08-15T03:40:05.639Z,47.5
2017-08-15T03:42:07.932Z,47.4
2017-08-15T03:44:05.650Z,47.4
2017-08-15T03:46:07.891Z,47.4
2017-08-15T03:48:05.879Z,47.4
2017-08-15T03:50:05.590Z,47.3
2017-08-15T03:52:05.322Z,47.2
2017-08-15T03:54:05.355Z,47.3
2017-08-15T03:56:07.598Z,47
2017-08-15T03:58:05.301Z,47
2017-08-15T04:00:08.609Z,47
2017-08-15T04:02:05.927Z,47
2017-08-15T04:04:08.168Z,47
2017-08-15T04:06:06.072Z,47
2017-08-15T04:08:15.901Z,47
2017-08-15T04:10:05.628Z,46.9
2017-08-15T04:12:05.542Z,47
2017-08-15T04:14:10.352Z,47
2017-08-15T04:16:05.115Z,47
2017-08-15T04:18:05.566Z,46.9
2017-08-15T04:20:05.397Z,46.9
2017-08-15T04:22:05.149Z,46.9
2017-08-15T04:24:05.898Z,46.9
2017-08-15T04:26:10.696Z,47
2017-08-15T04:28:05.432Z,46.8
2017-08-15T04:30:05.284Z,46.8
2017-08-15T04:32:11.040Z,46.7
2017-08-15T04:34:10.818Z,47
2017-08-15T04:36:11.705Z,47
2017-08-15T04:38:05.292Z,47.6
2017-08-15T04:40:08.537Z,46.7
2017-08-15T04:42:05.286Z,46.7
2017-08-15T04:44:06.160Z,46.8
2017-08-15T04:46:05.906Z,47
2017-08-15T04:48:08.344Z,46.9
2017-08-15T04:50:05.123Z,46.9
2017-08-15T04:52:05.860Z,46.8
2017-08-15T04:54:05.589Z,46.8
2017-08-15T04:56:05.317Z,46.8
2017-08-15T04:58:05.082Z,46.9
2017-08-15T05:00:06.210Z,46.7
2017-08-15T05:02:05.947Z,46.6
2017-08-15T05:04:10.797Z,46.6
2017-08-15T05:06:05.144Z,46.6
2017-08-15T05:08:05.870Z,46.5
2017-08-15T05:10:08.134Z,46.5
2017-08-15T05:12:06.020Z,46.5
2017-08-15T05:14:05.826Z,46.5
2017-08-15T05:16:05.890Z,46.5
2017-08-15T05:18:05.963Z,46.8
2017-08-15T05:20:05.655Z,46.8
2017-08-15T05:22:10.369Z,46.9
2017-08-15T05:24:05.104Z,46.9
2017-08-15T05:26:05.796Z,47
2017-08-15T05:28:05.514Z,47
2017-08-15T05:30:05.478Z,47
2017-08-15T05:32:05.371Z,46.9
2017-08-15T05:34:05.018Z,47.1
2017-08-15T05:36:08.338Z,46.6
2017-08-15T05:38:07.594Z,46.8
2017-08-15T05:40:07.841Z,46.7
2017-08-15T05:42:05.270Z,46.7
2017-08-15T05:44:05.959Z,46.7
2017-08-15T05:46:05.736Z,46.8
2017-08-15T05:48:05.760Z,46.8
2017-08-15T05:50:07.997Z,47
2017-08-15T05:52:05.743Z,46.7
2017-08-15T05:54:05.725Z,47
2017-08-15T05:56:05.444Z,47.2
2017-08-15T05:58:05.150Z,47.1
2017-08-15T06:00:11.052Z,47.2
2017-08-15T06:02:05.852Z,47.2
2017-08-15T06:04:05.238Z,47.1
2017-08-15T06:06:05.505Z,47.4
2017-08-15T06:08:05.197Z,47.4
2017-08-15T06:10:05.947Z,47.4
2017-08-15T06:12:05.186Z,47.6
2017-08-15T06:14:05.843Z,47.6
2017-08-15T06:16:05.635Z,47.8
2017-08-15T06:18:05.531Z,47.8
2017-08-15T06:20:07.980Z,48
2017-08-15T06:22:05.740Z,47.7
2017-08-15T06:24:05.486Z,48
2017-08-15T06:26:05.712Z,48.2
2017-08-15T06:28:08.053Z,48.1
2017-08-15T06:30:09.942Z,48.1
2017-08-15T06:32:09.769Z,48.2
2017-08-15T06:34:08.228Z,48.7
2017-08-15T06:36:11.014Z,48.7
2017-08-15T06:38:10.541Z,48.9
2017-08-15T06:40:07.814Z,49
2017-08-15T06:42:05.649Z,49
2017-08-15T06:44:05.914Z,48.9
2017-08-15T06:46:05.165Z,49
2017-08-15T06:48:06.234Z,49.1
2017-08-15T06:50:05.959Z,49.1
2017-08-15T06:52:05.864Z,49.3
2017-08-15T06:54:05.602Z,49
2017-08-15T06:56:05.363Z,49.1
2017-08-15T06:58:06.166Z,49
2017-08-15T07:00:11.420Z,49.1
2017-08-15T07:02:05.288Z,49.1
2017-08-15T07:04:05.916Z,49
2017-08-15T07:06:07.614Z,49.1
2017-08-15T07:08:06.996Z,49.1
2017-08-15T07:10:05.460Z,49.1
2017-08-15T07:12:05.536Z,49.2
2017-08-15T07:14:06.161Z,49.2
2017-08-15T07:16:05.191Z,49.4
2017-08-15T07:18:07.668Z,49.5
2017-08-15T07:20:05.426Z,49.2
2017-08-15T07:22:07.693Z,49.6
2017-08-15T07:24:08.108Z,49.7
2017-08-15T07:26:06.076Z,49.7
2017-08-15T07:28:05.859Z,49.8
2017-08-15T07:30:08.146Z,50
2017-08-15T07:32:05.380Z,50
2017-08-15T07:34:07.750Z,50
2017-08-15T07:36:08.018Z,50
2017-08-15T07:38:06.888Z,50
2017-08-15T07:40:05.088Z,50.1
2017-08-15T07:42:05.321Z,50.2
2017-08-15T07:44:05.587Z,50.2
2017-08-15T07:46:05.852Z,50.3
2017-08-15T07:48:07.714Z,50.2
2017-08-15T07:50:06.009Z,50.2
2017-08-15T07:52:05.826Z,50.2
2017-08-15T07:54:05.813Z,50.1
2017-08-15T07:56:05.559Z,50.3
2017-08-15T07:58:05.721Z,50.4
2017-08-15T08:00:06.355Z,50.3
2017-08-15T08:02:10.193Z,50.3
2017-08-15T08:04:06.008Z,50.3
2017-08-15T08:06:05.938Z,50.3
2017-08-15T08:08:05.675Z,50.3
2017-08-15T08:10:05.368Z,50.3
2017-08-15T08:12:05.303Z,50.5
2017-08-15T08:14:06.055Z,50.5
2017-08-15T08:16:05.729Z,50.5
2017-08-15T08:18:05.663Z,50.6
2017-08-15T08:20:05.312Z,50.6
2017-08-15T08:22:06.012Z,50.7
2017-08-15T08:24:11.199Z,50.9
2017-08-15T08:26:05.969Z,50.9
2017-08-15T08:28:05.446Z,51
2017-08-15T08:30:05.120Z,51.3
2017-08-15T08:32:08.345Z,51.2
2017-08-15T08:34:05.590Z,51.2
2017-08-15T08:36:05.589Z,51.4
2017-08-15T08:38:05.302Z,51.1
2017-08-15T08:40:06.002Z,51
2017-08-15T08:42:08.324Z,51.4
2017-08-15T08:44:05.157Z,51.4
2017-08-15T08:46:05.452Z,51.4
2017-08-15T08:48:05.136Z,51.2
2017-08-15T08:50:05.808Z,51.4
2017-08-15T08:52:10.640Z,51.4
2017-08-15T08:54:10.466Z,51.4
2017-08-15T08:56:08.214Z,51.4
2017-08-15T08:58:05.123Z,51.4
2017-08-15T09:00:05.936Z,51.2
2017-08-15T09:02:05.629Z,51.4
2017-08-15T09:04:05.350Z,51.4
2017-08-15T09:06:10.223Z,51.2
2017-08-15T09:08:05.925Z,51.4
2017-08-15T09:10:05.720Z,51.2
2017-08-15T09:12:05.523Z,51.2
2017-08-15T09:14:07.836Z,51.2
2017-08-15T09:16:10.562Z,51.2
2017-08-15T09:18:05.513Z,51.2
2017-08-15T09:20:07.852Z,51.2
2017-08-15T09:22:05.118Z,51.2
2017-08-15T09:24:05.950Z,51.2
2017-08-15T09:26:05.672Z,51.2
2017-08-15T09:28:05.340Z,51.2
2017-08-15T09:30:05.226Z,51.2
2017-08-15T09:32:06.055Z,51.2
2017-08-15T09:34:08.318Z,51.2
2017-08-15T09:36:10.272Z,51.2
2017-08-15T09:38:06.009Z,51.2
2017-08-15T09:40:07.767Z,51.3
2017-08-15T09:42:05.471Z,51.2
2017-08-15T09:44:05.130Z,51.2
2017-08-15T09:46:05.795Z,51.2
2017-08-15T09:48:05.843Z,51.2
2017-08-15T09:50:05.514Z,51.2
2017-08-15T09:52:07.769Z,51.2
2017-08-15T09:54:05.694Z,51.2
2017-08-15T09:56:05.453Z,51.2
2017-08-15T09:58:05.268Z,51.2
2017-08-15T10:00:07.879Z,51
2017-08-15T10:02:05.622Z,51
2017-08-15T10:04:05.531Z,51.2
2017-08-15T10:06:10.272Z,51.2
2017-08-15T10:08:06.052Z,51.2
2017-08-15T10:10:06.077Z,51.2
2017-08-15T10:12:13.678Z,51.2
2017-08-15T10:14:05.454Z,51.2
2017-08-15T10:16:07.648Z,51.4
2017-08-15T10:18:05.903Z,51.2
2017-08-15T10:20:05.931Z,51.4
2017-08-15T10:22:08.854Z,51.4
2017-08-15T10:24:05.436Z,51.4
2017-08-15T10:26:07.674Z,51.4
2017-08-15T10:28:07.908Z,51.4
2017-08-15T10:30:05.780Z,51.4
2017-08-15T10:32:07.583Z,51.7
2017-08-15T10:34:08.798Z,51.7
2017-08-15T10:36:05.610Z,51.7
2017-08-15T10:38:05.350Z,51.7
2017-08-15T10:40:05.120Z,51.7
2017-08-15T10:42:11.607Z,51.7
2017-08-15T10:44:06.379Z,51.7
2017-08-15T10:46:05.324Z,51.7
2017-08-15T10:48:07.668Z,51.9
2017-08-15T10:50:11.021Z,51.7
2017-08-15T10:52:05.763Z,51.7
2017-08-15T10:54:05.795Z,51.9
2017-08-15T10:56:05.499Z,51.9
2017-08-15T10:58:07.436Z,51.7
2017-08-15T11:00:07.844Z,51.9
2017-08-15T11:02:07.640Z,51.7
2017-08-15T11:04:06.404Z,51.9
2017-08-15T11:06:08.092Z,51.9
2017-08-15T11:08:05.853Z,51.7
2017-08-15T11:10:05.655Z,51.9
2017-08-15T11:12:10.443Z,51.9
2017-08-15T11:14:05.367Z,51.9
2017-08-15T11:16:05.077Z,51.9
2017-08-15T11:18:06.131Z,51.9
2017-08-15T11:20:05.856Z,52.1
2017-08-15T11:22:05.625Z,51.9
2017-08-15T11:24:10.755Z,52.1
2017-08-15T11:26:05.727Z,52.1
2017-08-15T11:28:10.636Z,52.1
2017-08-15T11:30:11.028Z,52.1
2017-08-15T11:32:05.762Z,52.1
2017-08-15T11:34:05.464Z,52.1
2017-08-15T11:36:05.820Z,52.1
2017-08-15T11:38:05.570Z,52.1
2017-08-15T11:40:13.128Z,52.1
2017-08-15T11:42:11.252Z,52.1
2017-08-15T11:44:05.061Z,52.1
2017-08-15T11:46:05.758Z,52.1
2017-08-15T11:48:05.728Z,52.1
2017-08-15T11:50:10.160Z,52.1
2017-08-15T11:52:11.017Z,52.1
2017-08-15T11:54:05.881Z,52.1
2017-08-15T11:56:05.725Z,52.3
2017-08-15T11:58:05.507Z,52.3
2017-08-15T12:00:05.796Z,52.1
2017-08-15T12:02:05.221Z,52.1
2017-08-15T12:04:08.396Z,52.3
2017-08-15T12:06:06.465Z,52.1
2017-08-15T12:08:05.183Z,52.1
2017-08-15T12:10:05.888Z,52.3
2017-08-15T12:12:06.154Z,52.3
2017-08-15T12:14:05.849Z,52.3
2017-08-15T12:16:05.606Z,52.1
2017-08-15T12:18:08.046Z,52.1
2017-08-15T12:20:05.782Z,52.3
2017-08-15T12:22:05.538Z,52.1
2017-08-15T12:24:07.981Z,52.3
2017-08-15T12:26:05.869Z,52.3
2017-08-15T12:28:05.687Z,52.3
2017-08-15T12:30:08.001Z,52.3
2017-08-15T12:32:05.934Z,52.1
2017-08-15T12:34:05.506Z,52.3
2017-08-15T12:36:07.765Z,52.3
2017-08-15T12:38:08.034Z,52.3
2017-08-15T12:40:08.553Z,52.3
2017-08-15T12:42:05.314Z,52.3
2017-08-15T12:44:07.570Z,52.3
2017-08-15T12:46:07.879Z,52.3
2017-08-15T12:48:05.130Z,52.3
2017-08-15T12:50:08.449Z,52.3
2017-08-15T12:52:05.167Z,52.3
2017-08-15T12:54:06.083Z,52.3
2017-08-15T12:56:05.763Z,52.3
2017-08-15T12:58:06.029Z,52.3
2017-08-15T13:00:10.986Z,52.3
2017-08-15T13:02:05.760Z,52.3
2017-08-15T13:04:05.678Z,52.3
2017-08-15T13:06:05.504Z,52.6
2017-08-15T13:08:05.286Z,52.3
2017-08-15T13:10:05.995Z,52.3
2017-08-15T13:12:06.157Z,52.4
2017-08-15T13:14:05.896Z,52.6
2017-08-15T13:16:05.753Z,52.6
2017-08-15T13:18:06.011Z,52.6
2017-08-15T13:20:05.722Z,52.5
2017-08-15T13:22:07.978Z,52.8
2017-08-15T13:24:05.261Z,52.8
2017-08-15T13:26:05.970Z,53
2017-08-15T13:28:05.747Z,52.9
2017-08-15T13:30:05.516Z,53.1
2017-08-15T13:32:05.735Z,53
2017-08-15T13:34:06.031Z,53.1
2017-08-15T13:36:08.447Z,53.4
2017-08-15T13:38:07.786Z,53.5
2017-08-15T13:40:05.548Z,53.5
2017-08-15T13:42:05.271Z,53.5
2017-08-15T13:44:05.951Z,53.6
2017-08-15T13:46:05.740Z,53.6
2017-08-15T13:48:05.441Z,53.6
2017-08-15T13:50:05.382Z,53.5
2017-08-15T13:52:05.630Z,53.4
2017-08-15T13:54:05.328Z,53.5
2017-08-15T13:56:05.094Z,53.5
2017-08-15T13:58:05.863Z,53.5
2017-08-15T14:00:08.096Z,53.5
2017-08-15T14:02:05.811Z,53.5
2017-08-15T14:04:08.169Z,53.6
2017-08-15T14:06:13.509Z,53.6
2017-08-15T14:08:05.242Z,53.6
2017-08-15T14:10:06.031Z,53.7
2017-08-15T14:12:05.740Z,53.7
2017-08-15T14:14:05.415Z,53.7
2017-08-15T14:16:05.712Z,53.7
2017-08-15T14:18:05.664Z,53.6
2017-08-15T14:20:05.913Z,53.6
2017-08-15T14:22:05.666Z,53.6
2017-08-15T14:24:06.053Z,53.6
2017-08-15T14:26:05.781Z,53.6
2017-08-15T14:28:07.568Z,53.5
2017-08-15T14:30:05.261Z,53.5
2017-08-15T14:32:05.944Z,53.6
2017-08-15T14:34:05.669Z,53.6
2017-08-15T14:36:07.920Z,53.8
2017-08-15T14:38:05.696Z,53.8
2017-08-15T14:40:10.560Z,53.7
2017-08-15T14:42:05.322Z,53.7
2017-08-15T14:44:05.051Z,53.7
2017-08-15T14:46:05.767Z,53.7
2017-08-15T14:48:05.494Z,53.7
2017-08-15T14:50:05.204Z,53.8
2017-08-15T14:52:06.050Z,53.8
2017-08-15T14:54:05.873Z,53.4
2017-08-15T14:56:05.603Z,53.5
2017-08-15T14:58:05.476Z,53.5
2017-08-15T15:00:05.709Z,53.6
2017-08-15T15:02:05.958Z,53.8
2017-08-15T15:04:05.753Z,53.9
2017-08-15T15:06:05.347Z,54
2017-08-15T15:08:07.713Z,54.1
2017-08-15T15:10:08.009Z,54.5
2017-08-15T15:12:08.338Z,54.6
2017-08-15T15:14:05.146Z,54.4
2017-08-15T15:16:05.935Z,54.5
2017-08-15T15:18:05.904Z,54.3
2017-08-15T15:20:05.608Z,54.6
2017-08-15T15:22:05.334Z,54.7
2017-08-15T15:24:05.225Z,54.5
2017-08-15T15:26:05.035Z,54.4
2017-08-15T15:28:05.832Z,54.5
2017-08-15T15:30:08.126Z,54.5
2017-08-15T15:32:05.904Z,54.5
2017-08-15T15:34:05.214Z,54.6
2017-08-15T15:36:05.953Z,54.6
2017-08-15T15:38:05.708Z,54.7
2017-08-15T15:40:05.248Z,54.6
2017-08-15T15:42:09.014Z,55
2017-08-15T15:44:05.807Z,54.8
2017-08-15T15:46:08.582Z,55.2
2017-08-15T15:48:05.599Z,54.9
2017-08-15T15:50:05.345Z,55.1
2017-08-15T15:52:05.091Z,55.2
2017-08-15T15:54:05.064Z,55.5
2017-08-15T15:56:05.178Z,55.7
2017-08-15T15:58:06.086Z,55.7
2017-08-15T16:00:06.053Z,56
2017-08-15T16:02:05.799Z,56.6
2017-08-15T16:04:05.114Z,56.6
2017-08-15T16:06:05.442Z,56.8
2017-08-15T16:08:08.289Z,56.8
2017-08-15T16:10:08.516Z,57
2017-08-15T16:12:05.324Z,57
2017-08-15T16:14:05.544Z,57
2017-08-15T16:16:05.263Z,57
2017-08-15T16:18:05.195Z,56.9
2017-08-15T16:20:08.454Z,56.8
2017-08-15T16:22:05.339Z,56.8
2017-08-15T16:24:05.413Z,57
2017-08-15T16:26:05.109Z,56.9
2017-08-15T16:28:09.232Z,56.7
2017-08-15T16:30:06.712Z,56.7
2017-08-15T16:32:05.967Z,56.7
2017-08-15T16:34:05.722Z,56.7
2017-08-15T16:36:08.115Z,56.6
2017-08-15T16:38:08.361Z,56.6
2017-08-15T16:40:05.605Z,56.6
2017-08-15T16:42:10.732Z,56.6
2017-08-15T16:44:06.195Z,56.6
2017-08-15T16:46:08.420Z,56.6
2017-08-15T16:48:07.936Z,56.5
2017-08-15T16:50:07.833Z,56.5
2017-08-15T16:52:05.566Z,56.5
2017-08-15T16:54:05.820Z,56.5
2017-08-15T16:56:05.574Z,56.5
2017-08-15T16:58:05.410Z,56.5
2017-08-15T17:00:05.285Z,56.4
2017-08-15T17:02:06.039Z,56.3
2017-08-15T17:04:05.885Z,56.1
2017-08-15T17:06:05.929Z,56.1
2017-08-15T17:08:05.660Z,56.1
2017-08-15T17:10:05.350Z,56.2
2017-08-15T17:12:05.306Z,56.2
2017-08-15T17:14:08.073Z,56.4
2017-08-15T17:16:05.345Z,56.3
2017-08-15T17:18:07.919Z,56.3
2017-08-15T17:20:08.189Z,56.3
2017-08-15T17:22:05.895Z,56.3
2017-08-15T17:24:10.347Z,56.4
2017-08-15T17:26:05.019Z,56.6
2017-08-15T17:28:05.829Z,56.6
2017-08-15T17:30:10.778Z,56.4
2017-08-15T17:32:05.442Z,56.4
2017-08-15T17:34:05.330Z,56.4
2017-08-15T17:36:05.403Z,56.4
2017-08-15T17:38:05.820Z,56.3
2017-08-15T17:40:05.518Z,56.4
2017-08-15T17:42:05.402Z,56.4
2017-08-15T17:44:05.112Z,56.4
2017-08-15T17:46:08.372Z,56.5
2017-08-15T17:48:10.516Z,56.6
2017-08-15T17:50:05.375Z,56.6
2017-08-15T17:52:05.077Z,56.7
2017-08-15T17:54:06.004Z,56.7
2017-08-15T17:56:05.764Z,56.7
2017-08-15T17:58:05.539Z,56.7
2017-08-15T18:00:10.453Z,56.7
2017-08-15T18:02:05.200Z,56.7
2017-08-15T18:04:06.007Z,56.6
2017-08-15T18:06:19.222Z,56.7
2017-08-15T18:08:07.478Z,56.7
2017-08-15T18:10:05.095Z,56.8
2017-08-15T18:12:10.871Z,56.8
2017-08-15T18:14:05.829Z,56.8
2017-08-15T18:16:05.313Z,56.8
2017-08-15T18:18:10.544Z,56.6
2017-08-15T18:20:07.971Z,56.8
2017-08-15T18:22:05.719Z,56.6
2017-08-15T18:24:05.811Z,56.8
2017-08-15T18:26:05.297Z,56.5
2017-08-15T18:28:05.028Z,56.4
2017-08-15T18:30:05.782Z,56.7
2017-08-15T18:32:06.010Z,56.5
2017-08-15T18:34:05.763Z,56.5
2017-08-15T18:36:08.340Z,56.5
2017-08-15T18:38:05.298Z,56.5
2017-08-15T18:40:06.037Z,56.5
2017-08-15T18:42:05.895Z,56.5
2017-08-15T18:44:05.649Z,56.7
2017-08-15T18:46:05.379Z,56.8
2017-08-15T18:48:07.635Z,56.6
2017-08-15T18:50:10.443Z,56.8
2017-08-15T18:52:05.288Z,56.9
2017-08-15T18:54:06.101Z,56.8
2017-08-15T18:56:05.855Z,56.7
2017-08-15T18:58:05.587Z,56.6
2017-08-15T19:00:05.524Z,56.4
2017-08-15T19:02:05.221Z,56.7
2017-08-15T19:04:05.909Z,56.5
2017-08-15T19:06:05.410Z,56.8
2017-08-15T19:08:05.139Z,56.8
2017-08-15T19:10:10.893Z,56.5
2017-08-15T19:12:05.612Z,56.5
2017-08-15T19:14:05.869Z,56.4
2017-08-15T19:16:05.630Z,56.5
2017-08-15T19:18:05.688Z,56.5
2017-08-15T19:20:07.897Z,56.5
2017-08-15T19:22:08.175Z,56.6
2017-08-15T19:24:05.659Z,56.5
2017-08-15T19:26:05.444Z,56.5
2017-08-15T19:28:05.290Z,56.6
2017-08-15T19:30:06.187Z,56.5
2017-08-15T19:32:05.514Z,56.5
2017-08-15T19:34:05.242Z,56.5
2017-08-15T19:36:06.076Z,56.5
2017-08-15T19:38:08.303Z,56.4
2017-08-15T19:40:06.029Z,56.4
2017-08-15T19:42:08.460Z,56.4
2017-08-15T19:44:07.746Z,56.4
2017-08-15T19:46:05.457Z,56.4
2017-08-15T19:48:05.582Z,56.4
2017-08-15T19:50:05.314Z,56.5
2017-08-15T19:52:07.608Z,56.4
2017-08-15T19:54:05.446Z,56.1
2017-08-15T19:56:05.333Z,56.1
2017-08-15T19:58:05.009Z,56.2
2017-08-15T20:00:05.769Z,56.4
2017-08-15T20:02:05.491Z,56.1
2017-08-15T20:04:05.215Z,56.2
2017-08-15T20:06:05.929Z,56.1
2017-08-15T20:08:05.728Z,56.2
2017-08-15T20:10:10.491Z,56.4
2017-08-15T20:12:08.049Z,56.6
2017-08-15T20:14:05.346Z,56.3
2017-08-15T20:16:05.234Z,56.3
2017-08-15T20:18:05.151Z,56.4
2017-08-15T20:20:06.213Z,56.4
2017-08-15T20:22:05.981Z,56.3
2017-08-15T20:24:05.749Z,56.3
2017-08-15T20:26:07.992Z,56.3
2017-08-15T20:28:05.781Z,56.3
2017-08-15T20:30:05.240Z,56.4
2017-08-15T20:32:10.559Z,56.2
2017-08-15T20:34:05.339Z,56.2
2017-08-15T20:36:07.738Z,56.1
2017-08-15T20:38:10.503Z,55.7
2017-08-15T20:40:07.785Z,55.7
2017-08-15T20:42:08.088Z,55.9
2017-08-15T20:44:05.399Z,55.6
2017-08-15T20:46:05.095Z,55.5
2017-08-15T20:48:05.677Z,55.4
2017-08-15T20:50:05.428Z,55.3
2017-08-15T20:52:05.140Z,55.3
2017-08-15T20:54:05.886Z,55.2
2017-08-15T20:56:05.602Z,55.1
2017-08-15T20:58:07.894Z,55
2017-08-15T21:00:05.792Z,55
2017-08-15T21:02:05.572Z,54.9
2017-08-15T21:04:08.564Z,54.8
2017-08-15T21:06:05.487Z,54.7
2017-08-15T21:08:05.204Z,54.7
2017-08-15T21:10:05.980Z,54.6
2017-08-15T21:12:05.922Z,54.6
2017-08-15T21:14:05.147Z,54.5
2017-08-15T21:16:05.407Z,54.5
2017-08-15T21:18:07.876Z,54.4
2017-08-15T21:20:05.573Z,54.4
2017-08-15T21:22:10.871Z,54.4
2017-08-15T21:24:06.062Z,54.4
2017-08-15T21:26:08.318Z,54.4
2017-08-15T21:28:07.530Z,54.4
2017-08-15T21:30:07.927Z,54.3
2017-08-15T21:32:10.897Z,54.3
2017-08-15T21:34:05.650Z,54.3
2017-08-15T21:36:10.576Z,54.3
2017-08-15T21:38:05.528Z,54.3
2017-08-15T21:40:12.899Z,54.2
2017-08-15T21:42:05.929Z,54.1
2017-08-15T21:44:06.576Z,54.1
2017-08-15T21:46:08.174Z,54.1
2017-08-15T21:48:06.041Z,54.1
2017-08-15T21:50:05.750Z,54.1
2017-08-15T21:52:08.161Z,54.1
2017-08-15T21:54:05.734Z,54.1
2017-08-15T21:56:07.979Z,54.1
2017-08-15T21:58:05.257Z,54
2017-08-15T22:00:10.754Z,54
2017-08-15T22:02:13.070Z,54
2017-08-15T22:04:08.425Z,54
2017-08-15T22:06:05.381Z,54
2017-08-15T22:08:05.149Z,54
2017-08-15T22:10:08.468Z,53.9
2017-08-15T22:12:05.331Z,53.9
2017-08-15T22:14:12.659Z,53.8
2017-08-15T22:16:05.814Z,53.8
2017-08-15T22:18:08.252Z,53.8
2017-08-15T22:20:06.119Z,53.8
2017-08-15T22:22:05.900Z,53.9
2017-08-15T22:24:05.627Z,53.8
2017-08-15T22:26:05.342Z,53.8
2017-08-15T22:28:05.104Z,53.8
2017-08-15T22:30:06.157Z,53.9
2017-08-15T22:32:05.873Z,53.8
2017-08-15T22:34:05.146Z,53.8
2017-08-15T22:36:06.014Z,53.8
2017-08-15T22:38:08.234Z,53.8
2017-08-15T22:40:05.910Z,53.8
2017-08-15T22:42:05.753Z,53.7
2017-08-15T22:44:15.546Z,53.7
2017-08-15T22:46:05.226Z,53.7
2017-08-15T22:48:11.429Z,53.8
2017-08-15T22:50:05.175Z,53.8
2017-08-15T22:52:05.595Z,53.8
2017-08-15T22:54:05.916Z,53.8
2017-08-15T22:56:08.247Z,53.7
2017-08-15T22:58:06.002Z,53.7
2017-08-15T23:00:05.764Z,53.7
2017-08-15T23:02:05.488Z,53.7
2017-08-15T23:04:05.195Z,53.6
2017-08-15T23:06:05.907Z,53.7
2017-08-15T23:08:05.604Z,53.6
2017-08-15T23:10:05.327Z,53.6
2017-08-15T23:12:05.131Z,53.5
2017-08-15T23:14:05.854Z,53.6
2017-08-15T23:16:05.645Z,53.6
2017-08-15T23:18:08.120Z,53.6
2017-08-15T23:20:05.849Z,53.6
2017-08-15T23:22:05.593Z,53.6
2017-08-15T23:24:05.504Z,53.6
2017-08-15T23:26:07.752Z,53.6
2017-08-15T23:28:05.751Z,53.5
2017-08-15T23:30:10.475Z,53.6
2017-08-15T23:32:05.156Z,53.6
2017-08-15T23:34:05.454Z,53.6
2017-08-15T23:36:05.540Z,53.6
2017-08-15T23:38:05.297Z,53.6
2017-08-15T23:40:06.377Z,53.6
2017-08-15T23:42:05.135Z,53.6
2017-08-15T23:44:05.935Z,53.6
2017-08-15T23:46:05.638Z,53.5
2017-08-15T23:48:05.748Z,53.6
2017-08-15T23:50:07.999Z,53.6
2017-08-15T23:52:10.768Z,53.4
2017-08-15T23:54:06.148Z,53.6
2017-08-15T23:56:06.005Z,53.6
2017-08-15T23:58:05.728Z,53.6
